sensor_id;sensor_type;location;lat;lon;timestamp;P1;durP1;ratioP1;P2;durP2;ratioP2
16737;SDS011;17906;47.684;10.806;2022-11-20T00:00:15;1.37;;;0.47;;
16737;SDS011;17906;47.684;10.806;2022-11-20T00:02:43;0.77;;;0.47;;
16737;SDS011;17906;47.684;10.806;2022-11-20T00:05:10;0.50;;;0.30;;
16737;SDS011;17906;47.684;10.806;2022-11-20T00:07:37;1.40;;;0.37;;
16737;SDS011;17906;47.684;10.806;2022-11-20T00:10:04;0.43;;;0.30;;
16737;SDS011;17906;47.684;10.806;2022-11-20T00:12:31;0.97;;;0.30;;
16737;SDS011;17906;47.684;10.806;2022-11-20T00:14:57;0.50;;;0.30;;
16737;SDS011;17906;47.684;10.806;2022-11-20T00:17:24;1.87;;;0.57;;
16737;SDS011;17906;47.684;10.806;2022-11-20T00:19:53;0.80;;;0.50;;
16737;SDS011;17906;47.684;10.806;2022-11-20T00:22:20;1.67;;;0.50;;
16737;SDS011;17906;47.684;10.806;2022-11-20T00:24:46;0.80;;;0.47;;
16737;SDS011;17906;47.684;10.806;2022-11-20T00:27:13;1.63;;;0.47;;
16737;SDS011;17906;47.684;10.806;2022-11-20T00:29:39;1.87;;;0.40;;
16737;SDS011;17906;47.684;10.806;2022-11-20T00:32:06;1.13;;;0.50;;
16737;SDS011;17906;47.684;10.806;2022-11-20T00:34:33;1.90;;;0.47;;
16737;SDS011;17906;47.684;10.806;2022-11-20T00:37:01;1.47;;;0.40;;
16737;SDS011;17906;47.684;10.806;2022-11-20T00:39:27;0.70;;;0.40;;
16737;SDS011;17906;47.684;10.806;2022-11-20T00:41:54;2.07;;;0.40;;
16737;SDS011;17906;47.684;10.806;2022-11-20T00:44:20;2.87;;;0.40;;
16737;SDS011;17906;47.684;10.806;2022-11-20T00:46:47;0.90;;;0.40;;
16737;SDS011;17906;47.684;10.806;2022-11-20T00:49:14;1.80;;;0.67;;
16737;SDS011;17906;47.684;10.806;2022-11-20T00:51:40;0.70;;;0.47;;
16737;SDS011;17906;47.684;10.806;2022-11-20T00:54:08;1.13;;;0.60;;
16737;SDS011;17906;47.684;10.806;2022-11-20T00:56:35;0.90;;;0.50;;
16737;SDS011;17906;47.684;10.806;2022-11-20T00:59:01;0.97;;;0.50;;
16737;SDS011;17906;47.684;10.806;2022-11-20T01:01:28;1.83;;;0.60;;
16737;SDS011;17906;47.684;10.806;2022-11-20T01:03:56;1.00;;;0.60;;
16737;SDS011;17906;47.684;10.806;2022-11-20T01:06:24;1.40;;;0.57;;
16737;SDS011;17906;47.684;10.806;2022-11-20T01:08:53;1.30;;;0.77;;
16737;SDS011;17906;47.684;10.806;2022-11-20T01:11:23;1.70;;;0.70;;
16737;SDS011;17906;47.684;10.806;2022-11-20T01:13:51;0.87;;;0.63;;
16737;SDS011;17906;47.684;10.806;2022-11-20T01:16:20;2.03;;;0.77;;
16737;SDS011;17906;47.684;10.806;2022-11-20T01:18:49;2.00;;;0.70;;
16737;SDS011;17906;47.684;10.806;2022-11-20T01:21:17;0.60;;;0.40;;
16737;SDS011;17906;47.684;10.806;2022-11-20T01:23:46;0.83;;;0.40;;
16737;SDS011;17906;47.684;10.806;2022-11-20T01:26:15;1.30;;;0.60;;
16737;SDS011;17906;47.684;10.806;2022-11-20T01:28:44;1.27;;;0.70;;
16737;SDS011;17906;47.684;10.806;2022-11-20T01:31:11;3.40;;;0.70;;
16737;SDS011;17906;47.684;10.806;2022-11-20T01:33:39;0.80;;;0.60;;
16737;SDS011;17906;47.684;10.806;2022-11-20T01:36:10;1.60;;;0.60;;
16737;SDS011;17906;47.684;10.806;2022-11-20T01:38:37;2.20;;;0.70;;
16737;SDS011;17906;47.684;10.806;2022-11-20T01:41:05;1.13;;;0.60;;
16737;SDS011;17906;47.684;10.806;2022-11-20T01:43:32;2.53;;;0.60;;
16737;SDS011;17906;47.684;10.806;2022-11-20T01:48:42;2.10;;;0.60;;
16737;SDS011;17906;47.684;10.806;2022-11-20T01:51:16;2.33;;;1.03;;
16737;SDS011;17906;47.684;10.806;2022-11-20T01:53:47;1.40;;;0.80;;
16737;SDS011;17906;47.684;10.806;2022-11-20T01:56:14;2.87;;;1.20;;
16737;SDS011;17906;47.684;10.806;2022-11-20T01:58:43;1.60;;;1.10;;
16737;SDS011;17906;47.684;10.806;2022-11-20T02:01:15;6.20;;;1.37;;
16737;SDS011;17906;47.684;10.806;2022-11-20T02:03:41;1.83;;;1.03;;
16737;SDS011;17906;47.684;10.806;2022-11-20T02:06:11;2.70;;;1.10;;
16737;SDS011;17906;47.684;10.806;2022-11-20T02:08:43;3.13;;;1.43;;
16737;SDS011;17906;47.684;10.806;2022-11-20T02:11:09;1.70;;;1.30;;
16737;SDS011;17906;47.684;10.806;2022-11-20T02:13:37;2.33;;;1.30;;
16737;SDS011;17906;47.684;10.806;2022-11-20T02:16:15;5.43;;;2.40;;
16737;SDS011;17906;47.684;10.806;2022-11-20T02:18:46;3.30;;;1.47;;
16737;SDS011;17906;47.684;10.806;2022-11-20T02:21:15;6.47;;;1.60;;
16737;SDS011;17906;47.684;10.806;2022-11-20T02:26:42;3.80;;;1.23;;
16737;SDS011;17906;47.684;10.806;2022-11-20T02:29:14;3.43;;;1.17;;
16737;SDS011;17906;47.684;10.806;2022-11-20T02:31:43;2.57;;;1.43;;
16737;SDS011;17906;47.684;10.806;2022-11-20T02:34:11;3.70;;;1.80;;
16737;SDS011;17906;47.684;10.806;2022-11-20T02:36:38;2.47;;;1.50;;
16737;SDS011;17906;47.684;10.806;2022-11-20T02:39:08;3.83;;;1.70;;
16737;SDS011;17906;47.684;10.806;2022-11-20T02:41:39;4.70;;;1.77;;
16737;SDS011;17906;47.684;10.806;2022-11-20T02:44:06;2.47;;;1.70;;
16737;SDS011;17906;47.684;10.806;2022-11-20T02:46:32;3.23;;;1.63;;
16737;SDS011;17906;47.684;10.806;2022-11-20T02:49:00;4.10;;;2.03;;
16737;SDS011;17906;47.684;10.806;2022-11-20T02:51:28;5.43;;;2.30;;
16737;SDS011;17906;47.684;10.806;2022-11-20T02:53:54;2.87;;;1.73;;
16737;SDS011;17906;47.684;10.806;2022-11-20T02:56:21;2.67;;;1.80;;
16737;SDS011;17906;47.684;10.806;2022-11-20T02:58:49;2.47;;;1.60;;
16737;SDS011;17906;47.684;10.806;2022-11-20T03:01:16;4.50;;;1.80;;
16737;SDS011;17906;47.684;10.806;2022-11-20T03:03:43;2.77;;;1.83;;
16737;SDS011;17906;47.684;10.806;2022-11-20T03:06:09;4.10;;;1.97;;
16737;SDS011;17906;47.684;10.806;2022-11-20T03:08:36;5.73;;;2.40;;
16737;SDS011;17906;47.684;10.806;2022-11-20T03:11:04;4.30;;;1.90;;
16737;SDS011;17906;47.684;10.806;2022-11-20T03:13:32;7.00;;;2.20;;
16737;SDS011;17906;47.684;10.806;2022-11-20T03:16:05;3.70;;;1.83;;
16737;SDS011;17906;47.684;10.806;2022-11-20T03:18:33;3.13;;;1.60;;
16737;SDS011;17906;47.684;10.806;2022-11-20T03:20:59;3.10;;;1.73;;
16737;SDS011;17906;47.684;10.806;2022-11-20T03:23:28;4.30;;;1.87;;
16737;SDS011;17906;47.684;10.806;2022-11-20T03:25:55;3.23;;;1.63;;
16737;SDS011;17906;47.684;10.806;2022-11-20T03:28:22;4.17;;;1.53;;
16737;SDS011;17906;47.684;10.806;2022-11-20T03:30:48;3.53;;;1.83;;
16737;SDS011;17906;47.684;10.806;2022-11-20T03:33:16;2.20;;;1.43;;
16737;SDS011;17906;47.684;10.806;2022-11-20T03:35:43;2.67;;;1.27;;
16737;SDS011;17906;47.684;10.806;2022-11-20T03:38:10;2.23;;;1.40;;
16737;SDS011;17906;47.684;10.806;2022-11-20T03:40:36;3.00;;;1.10;;
16737;SDS011;17906;47.684;10.806;2022-11-20T03:43:03;2.03;;;1.13;;
16737;SDS011;17906;47.684;10.806;2022-11-20T03:45:29;2.80;;;1.37;;
16737;SDS011;17906;47.684;10.806;2022-11-20T03:47:56;2.37;;;1.27;;
16737;SDS011;17906;47.684;10.806;2022-11-20T03:50:24;2.90;;;1.20;;
16737;SDS011;17906;47.684;10.806;2022-11-20T03:52:51;2.70;;;1.40;;
16737;SDS011;17906;47.684;10.806;2022-11-20T03:55:17;1.27;;;0.97;;
16737;SDS011;17906;47.684;10.806;2022-11-20T03:57:44;1.57;;;1.10;;
16737;SDS011;17906;47.684;10.806;2022-11-20T04:00:11;3.13;;;1.47;;
16737;SDS011;17906;47.684;10.806;2022-11-20T04:02:39;1.90;;;1.23;;
16737;SDS011;17906;47.684;10.806;2022-11-20T04:05:06;2.23;;;1.47;;
16737;SDS011;17906;47.684;10.806;2022-11-20T04:07:34;2.93;;;1.30;;
16737;SDS011;17906;47.684;10.806;2022-11-20T04:10:01;2.20;;;1.37;;
16737;SDS011;17906;47.684;10.806;2022-11-20T04:12:31;5.10;;;1.40;;
16737;SDS011;17906;47.684;10.806;2022-11-20T04:14:58;1.90;;;1.23;;
16737;SDS011;17906;47.684;10.806;2022-11-20T04:17:25;2.83;;;1.40;;
16737;SDS011;17906;47.684;10.806;2022-11-20T04:19:51;2.80;;;1.40;;
16737;SDS011;17906;47.684;10.806;2022-11-20T04:22:18;3.37;;;1.70;;
16737;SDS011;17906;47.684;10.806;2022-11-20T04:24:46;2.67;;;1.77;;
16737;SDS011;17906;47.684;10.806;2022-11-20T04:27:13;3.60;;;2.03;;
16737;SDS011;17906;47.684;10.806;2022-11-20T04:29:40;7.30;;;2.47;;
16737;SDS011;17906;47.684;10.806;2022-11-20T04:32:07;3.13;;;2.07;;
16737;SDS011;17906;47.684;10.806;2022-11-20T04:34:33;4.13;;;2.20;;
16737;SDS011;17906;47.684;10.806;2022-11-20T04:37:00;4.57;;;2.47;;
16737;SDS011;17906;47.684;10.806;2022-11-20T04:39:27;4.47;;;2.40;;
16737;SDS011;17906;47.684;10.806;2022-11-20T04:41:55;4.13;;;2.07;;
16737;SDS011;17906;47.684;10.806;2022-11-20T04:44:36;3.20;;;1.47;;
16737;SDS011;17906;47.684;10.806;2022-11-20T04:47:02;2.73;;;1.80;;
16737;SDS011;17906;47.684;10.806;2022-11-20T04:49:29;3.20;;;1.90;;
16737;SDS011;17906;47.684;10.806;2022-11-20T04:51:56;2.10;;;1.27;;
16737;SDS011;17906;47.684;10.806;2022-11-20T04:54:23;1.93;;;1.50;;
16737;SDS011;17906;47.684;10.806;2022-11-20T04:56:49;1.27;;;0.70;;
16737;SDS011;17906;47.684;10.806;2022-11-20T04:59:18;1.40;;;0.70;;
16737;SDS011;17906;47.684;10.806;2022-11-20T05:01:45;3.57;;;0.80;;
16737;SDS011;17906;47.684;10.806;2022-11-20T05:04:12;2.73;;;1.40;;
16737;SDS011;17906;47.684;10.806;2022-11-20T05:06:38;2.57;;;1.57;;
16737;SDS011;17906;47.684;10.806;2022-11-20T05:09:05;2.93;;;1.50;;
16737;SDS011;17906;47.684;10.806;2022-11-20T05:11:32;3.23;;;1.73;;
16737;SDS011;17906;47.684;10.806;2022-11-20T05:13:59;3.23;;;1.60;;
16737;SDS011;17906;47.684;10.806;2022-11-20T05:16:27;2.97;;;1.80;;
16737;SDS011;17906;47.684;10.806;2022-11-20T05:18:53;3.23;;;1.70;;
16737;SDS011;17906;47.684;10.806;2022-11-20T05:21:21;4.90;;;2.17;;
16737;SDS011;17906;47.684;10.806;2022-11-20T05:23:48;4.80;;;2.17;;
16737;SDS011;17906;47.684;10.806;2022-11-20T05:26:16;4.00;;;2.20;;
16737;SDS011;17906;47.684;10.806;2022-11-20T05:28:44;3.83;;;2.40;;
16737;SDS011;17906;47.684;10.806;2022-11-20T05:31:11;4.87;;;2.60;;
16737;SDS011;17906;47.684;10.806;2022-11-20T05:33:40;4.97;;;2.73;;
16737;SDS011;17906;47.684;10.806;2022-11-20T05:36:08;3.23;;;1.97;;
16737;SDS011;17906;47.684;10.806;2022-11-20T05:38:35;3.63;;;2.40;;
16737;SDS011;17906;47.684;10.806;2022-11-20T05:41:03;3.20;;;2.00;;
16737;SDS011;17906;47.684;10.806;2022-11-20T05:43:31;3.03;;;1.70;;
16737;SDS011;17906;47.684;10.806;2022-11-20T05:45:59;3.50;;;1.70;;
16737;SDS011;17906;47.684;10.806;2022-11-20T05:48:25;2.93;;;1.83;;
16737;SDS011;17906;47.684;10.806;2022-11-20T05:50:54;3.33;;;2.03;;
16737;SDS011;17906;47.684;10.806;2022-11-20T05:53:20;3.40;;;2.07;;
16737;SDS011;17906;47.684;10.806;2022-11-20T05:55:55;4.80;;;2.30;;
16737;SDS011;17906;47.684;10.806;2022-11-20T05:58:22;3.10;;;2.13;;
16737;SDS011;17906;47.684;10.806;2022-11-20T06:00:49;4.67;;;2.13;;
16737;SDS011;17906;47.684;10.806;2022-11-20T06:03:16;4.23;;;2.10;;
16737;SDS011;17906;47.684;10.806;2022-11-20T06:05:42;3.20;;;2.20;;
16737;SDS011;17906;47.684;10.806;2022-11-20T06:08:10;3.93;;;2.07;;
16737;SDS011;17906;47.684;10.806;2022-11-20T06:10:37;4.97;;;1.97;;
16737;SDS011;17906;47.684;10.806;2022-11-20T06:13:03;4.30;;;2.30;;
16737;SDS011;17906;47.684;10.806;2022-11-20T06:15:30;4.50;;;2.27;;
16737;SDS011;17906;47.684;10.806;2022-11-20T06:17:57;4.33;;;2.50;;
16737;SDS011;17906;47.684;10.806;2022-11-20T06:20:24;6.33;;;2.30;;
16737;SDS011;17906;47.684;10.806;2022-11-20T06:22:51;5.03;;;2.27;;
16737;SDS011;17906;47.684;10.806;2022-11-20T06:25:19;5.40;;;2.73;;
16737;SDS011;17906;47.684;10.806;2022-11-20T06:27:45;3.10;;;2.03;;
16737;SDS011;17906;47.684;10.806;2022-11-20T06:30:12;4.27;;;2.30;;
16737;SDS011;17906;47.684;10.806;2022-11-20T06:32:39;7.30;;;2.80;;
16737;SDS011;17906;47.684;10.806;2022-11-20T06:35:06;4.33;;;2.53;;
16737;SDS011;17906;47.684;10.806;2022-11-20T06:37:33;4.77;;;2.43;;
16737;SDS011;17906;47.684;10.806;2022-11-20T06:40:00;6.03;;;2.47;;
16737;SDS011;17906;47.684;10.806;2022-11-20T06:42:28;3.90;;;2.17;;
16737;SDS011;17906;47.684;10.806;2022-11-20T06:44:55;7.67;;;2.20;;
16737;SDS011;17906;47.684;10.806;2022-11-20T06:47:22;3.90;;;2.10;;
16737;SDS011;17906;47.684;10.806;2022-11-20T06:49:48;5.40;;;2.20;;
16737;SDS011;17906;47.684;10.806;2022-11-20T06:52:15;4.40;;;2.30;;
16737;SDS011;17906;47.684;10.806;2022-11-20T06:54:42;4.53;;;2.17;;
16737;SDS011;17906;47.684;10.806;2022-11-20T06:57:08;3.17;;;1.93;;
16737;SDS011;17906;47.684;10.806;2022-11-20T06:59:36;3.60;;;1.90;;
16737;SDS011;17906;47.684;10.806;2022-11-20T07:02:03;5.17;;;2.63;;
16737;SDS011;17906;47.684;10.806;2022-11-20T07:04:30;5.23;;;2.80;;
16737;SDS011;17906;47.684;10.806;2022-11-20T07:06:57;4.60;;;2.30;;
16737;SDS011;17906;47.684;10.806;2022-11-20T07:09:24;4.43;;;2.10;;
16737;SDS011;17906;47.684;10.806;2022-11-20T07:11:51;9.07;;;2.30;;
16737;SDS011;17906;47.684;10.806;2022-11-20T07:14:17;4.23;;;2.20;;
16737;SDS011;17906;47.684;10.806;2022-11-20T07:16:45;5.43;;;2.20;;
16737;SDS011;17906;47.684;10.806;2022-11-20T07:19:12;3.40;;;2.00;;
16737;SDS011;17906;47.684;10.806;2022-11-20T07:21:38;2.77;;;1.67;;
16737;SDS011;17906;47.684;10.806;2022-11-20T07:24:05;2.63;;;1.73;;
16737;SDS011;17906;47.684;10.806;2022-11-20T07:26:32;2.43;;;1.67;;
16737;SDS011;17906;47.684;10.806;2022-11-20T07:28:59;2.53;;;1.83;;
16737;SDS011;17906;47.684;10.806;2022-11-20T07:31:25;3.33;;;1.77;;
16737;SDS011;17906;47.684;10.806;2022-11-20T07:33:53;2.50;;;1.70;;
16737;SDS011;17906;47.684;10.806;2022-11-20T07:36:20;2.40;;;1.40;;
16737;SDS011;17906;47.684;10.806;2022-11-20T07:38:47;3.67;;;1.50;;
16737;SDS011;17906;47.684;10.806;2022-11-20T07:41:14;2.13;;;1.50;;
16737;SDS011;17906;47.684;10.806;2022-11-20T07:43:41;2.53;;;1.50;;
16737;SDS011;17906;47.684;10.806;2022-11-20T07:46:07;3.33;;;1.80;;
16737;SDS011;17906;47.684;10.806;2022-11-20T07:48:34;3.43;;;1.50;;
16737;SDS011;17906;47.684;10.806;2022-11-20T07:51:02;3.33;;;2.03;;
16737;SDS011;17906;47.684;10.806;2022-11-20T07:53:29;3.10;;;1.63;;
16737;SDS011;17906;47.684;10.806;2022-11-20T07:55:58;7.23;;;2.50;;
16737;SDS011;17906;47.684;10.806;2022-11-20T07:58:25;3.30;;;2.13;;
16737;SDS011;17906;47.684;10.806;2022-11-20T08:00:52;3.23;;;1.30;;
16737;SDS011;17906;47.684;10.806;2022-11-20T08:03:18;2.03;;;1.40;;
16737;SDS011;17906;47.684;10.806;2022-11-20T08:05:45;3.90;;;1.00;;
16737;SDS011;17906;47.684;10.806;2022-11-20T08:08:13;2.57;;;1.50;;
16737;SDS011;17906;47.684;10.806;2022-11-20T08:10:40;2.13;;;0.93;;
16737;SDS011;17906;47.684;10.806;2022-11-20T08:13:08;1.77;;;1.43;;
16737;SDS011;17906;47.684;10.806;2022-11-20T08:16:07;2.63;;;1.47;;
16737;SDS011;17906;47.684;10.806;2022-11-20T08:18:33;2.70;;;1.50;;
16737;SDS011;17906;47.684;10.806;2022-11-20T08:21:01;2.77;;;1.30;;
16737;SDS011;17906;47.684;10.806;2022-11-20T08:23:31;12.10;;;5.07;;
16737;SDS011;17906;47.684;10.806;2022-11-20T08:25:57;18.93;;;9.50;;
16737;SDS011;17906;47.684;10.806;2022-11-20T08:28:24;11.97;;;4.97;;
16737;SDS011;17906;47.684;10.806;2022-11-20T08:30:51;4.37;;;2.03;;
16737;SDS011;17906;47.684;10.806;2022-11-20T08:33:17;1.70;;;1.30;;
16737;SDS011;17906;47.684;10.806;2022-11-20T08:35:44;1.97;;;1.30;;
16737;SDS011;17906;47.684;10.806;2022-11-20T08:38:11;2.10;;;1.20;;
16737;SDS011;17906;47.684;10.806;2022-11-20T08:40:39;1.60;;;1.00;;
16737;SDS011;17906;47.684;10.806;2022-11-20T08:43:06;1.80;;;1.13;;
16737;SDS011;17906;47.684;10.806;2022-11-20T08:45:34;2.63;;;1.60;;
16737;SDS011;17906;47.684;10.806;2022-11-20T08:48:03;2.37;;;1.10;;
16737;SDS011;17906;47.684;10.806;2022-11-20T08:50:31;1.63;;;1.00;;
16737;SDS011;17906;47.684;10.806;2022-11-20T08:53:03;1.50;;;0.80;;
16737;SDS011;17906;47.684;10.806;2022-11-20T08:55:30;1.07;;;0.87;;
16737;SDS011;17906;47.684;10.806;2022-11-20T08:57:58;1.87;;;1.00;;
16737;SDS011;17906;47.684;10.806;2022-11-20T09:00:29;1.87;;;1.03;;
16737;SDS011;17906;47.684;10.806;2022-11-20T09:02:55;3.20;;;1.60;;
16737;SDS011;17906;47.684;10.806;2022-11-20T09:05:23;2.63;;;1.80;;
16737;SDS011;17906;47.684;10.806;2022-11-20T09:07:50;1.80;;;1.10;;
16737;SDS011;17906;47.684;10.806;2022-11-20T09:10:16;2.67;;;1.20;;
16737;SDS011;17906;47.684;10.806;2022-11-20T09:12:44;4.17;;;1.10;;
16737;SDS011;17906;47.684;10.806;2022-11-20T09:15:12;1.63;;;1.20;;
16737;SDS011;17906;47.684;10.806;2022-11-20T09:17:38;1.93;;;1.03;;
16737;SDS011;17906;47.684;10.806;2022-11-20T09:20:05;2.03;;;0.87;;
16737;SDS011;17906;47.684;10.806;2022-11-20T09:22:33;1.63;;;1.00;;
16737;SDS011;17906;47.684;10.806;2022-11-20T09:24:59;4.00;;;2.30;;
16737;SDS011;17906;47.684;10.806;2022-11-20T09:27:26;1.27;;;1.00;;
16737;SDS011;17906;47.684;10.806;2022-11-20T09:29:53;2.80;;;1.17;;
16737;SDS011;17906;47.684;10.806;2022-11-20T09:32:21;3.23;;;1.20;;
16737;SDS011;17906;47.684;10.806;2022-11-20T09:34:48;1.67;;;0.83;;
16737;SDS011;17906;47.684;10.806;2022-11-20T09:37:14;1.73;;;0.90;;
16737;SDS011;17906;47.684;10.806;2022-11-20T09:39:41;1.60;;;0.70;;
16737;SDS011;17906;47.684;10.806;2022-11-20T09:42:17;1.30;;;0.90;;
16737;SDS011;17906;47.684;10.806;2022-11-20T09:45:02;1.63;;;0.77;;
16737;SDS011;17906;47.684;10.806;2022-11-20T09:47:50;0.77;;;0.67;;
16737;SDS011;17906;47.684;10.806;2022-11-20T09:50:25;1.77;;;0.70;;
16737;SDS011;17906;47.684;10.806;2022-11-20T09:53:13;1.77;;;1.00;;
16737;SDS011;17906;47.684;10.806;2022-11-20T09:55:46;4.20;;;1.00;;
16737;SDS011;17906;47.684;10.806;2022-11-20T09:58:15;1.60;;;0.90;;
16737;SDS011;17906;47.684;10.806;2022-11-20T10:00:49;1.63;;;0.90;;
16737;SDS011;17906;47.684;10.806;2022-11-20T10:03:26;0.90;;;0.60;;
16737;SDS011;17906;47.684;10.806;2022-11-20T10:06:04;3.20;;;1.60;;
16737;SDS011;17906;47.684;10.806;2022-11-20T10:08:39;1.70;;;1.00;;
16737;SDS011;17906;47.684;10.806;2022-11-20T10:11:11;0.70;;;0.60;;
16737;SDS011;17906;47.684;10.806;2022-11-20T10:13:45;3.73;;;1.40;;
16737;SDS011;17906;47.684;10.806;2022-11-20T10:16:24;4.57;;;2.67;;
16737;SDS011;17906;47.684;10.806;2022-11-20T10:19:01;6.27;;;3.40;;
16737;SDS011;17906;47.684;10.806;2022-11-20T10:21:39;9.57;;;4.87;;
16737;SDS011;17906;47.684;10.806;2022-11-20T10:24:24;5.30;;;2.77;;
16737;SDS011;17906;47.684;10.806;2022-11-20T10:27:06;6.70;;;1.40;;
16737;SDS011;17906;47.684;10.806;2022-11-20T10:29:47;10.13;;;4.87;;
16737;SDS011;17906;47.684;10.806;2022-11-20T10:32:27;2.47;;;1.37;;
16737;SDS011;17906;47.684;10.806;2022-11-20T10:35:01;0.73;;;0.60;;
16737;SDS011;17906;47.684;10.806;2022-11-20T10:37:37;0.63;;;0.57;;
16737;SDS011;17906;47.684;10.806;2022-11-20T10:40:15;0.67;;;0.50;;
16737;SDS011;17906;47.684;10.806;2022-11-20T10:42:48;1.30;;;0.53;;
16737;SDS011;17906;47.684;10.806;2022-11-20T10:45:22;1.73;;;0.60;;
16737;SDS011;17906;47.684;10.806;2022-11-20T10:48:10;0.87;;;0.67;;
16737;SDS011;17906;47.684;10.806;2022-11-20T10:50:52;1.17;;;0.77;;
16737;SDS011;17906;47.684;10.806;2022-11-20T10:53:31;0.93;;;0.60;;
16737;SDS011;17906;47.684;10.806;2022-11-20T10:56:08;0.70;;;0.60;;
16737;SDS011;17906;47.684;10.806;2022-11-20T10:58:47;1.07;;;0.60;;
16737;SDS011;17906;47.684;10.806;2022-11-20T11:01:23;2.13;;;0.70;;
16737;SDS011;17906;47.684;10.806;2022-11-20T11:03:51;1.37;;;0.60;;
16737;SDS011;17906;47.684;10.806;2022-11-20T11:06:22;1.20;;;0.70;;
16737;SDS011;17906;47.684;10.806;2022-11-20T11:08:55;1.63;;;0.60;;
16737;SDS011;17906;47.684;10.806;2022-11-20T11:11:25;0.80;;;0.50;;
16737;SDS011;17906;47.684;10.806;2022-11-20T11:14:03;1.30;;;0.50;;
16737;SDS011;17906;47.684;10.806;2022-11-20T11:16:30;1.67;;;0.57;;
16737;SDS011;17906;47.684;10.806;2022-11-20T11:19:03;0.97;;;0.60;;
16737;SDS011;17906;47.684;10.806;2022-11-20T11:21:32;0.80;;;0.50;;
16737;SDS011;17906;47.684;10.806;2022-11-20T11:24:00;2.50;;;0.50;;
16737;SDS011;17906;47.684;10.806;2022-11-20T11:26:27;0.73;;;0.37;;
16737;SDS011;17906;47.684;10.806;2022-11-20T11:28:54;1.67;;;0.30;;
16737;SDS011;17906;47.684;10.806;2022-11-20T11:31:23;0.57;;;0.37;;
16737;SDS011;17906;47.684;10.806;2022-11-20T11:33:50;0.77;;;0.40;;
16737;SDS011;17906;47.684;10.806;2022-11-20T11:36:17;1.67;;;0.43;;
16737;SDS011;17906;47.684;10.806;2022-11-20T11:38:51;1.33;;;0.50;;
16737;SDS011;17906;47.684;10.806;2022-11-20T11:41:20;0.87;;;0.37;;
16737;SDS011;17906;47.684;10.806;2022-11-20T11:43:51;1.13;;;0.40;;
16737;SDS011;17906;47.684;10.806;2022-11-20T11:46:38;0.90;;;0.40;;
16737;SDS011;17906;47.684;10.806;2022-11-20T11:49:15;1.90;;;0.40;;
16737;SDS011;17906;47.684;10.806;2022-11-20T11:51:46;1.10;;;0.40;;
16737;SDS011;17906;47.684;10.806;2022-11-20T11:54:25;0.57;;;0.30;;
16737;SDS011;17906;47.684;10.806;2022-11-20T11:56:58;0.70;;;0.30;;
16737;SDS011;17906;47.684;10.806;2022-11-20T11:59:29;1.40;;;0.50;;
16737;SDS011;17906;47.684;10.806;2022-11-20T12:02:22;0.83;;;0.30;;
16737;SDS011;17906;47.684;10.806;2022-11-20T12:04:57;0.50;;;0.30;;
16737;SDS011;17906;47.684;10.806;2022-11-20T12:07:32;1.17;;;0.37;;
16737;SDS011;17906;47.684;10.806;2022-11-20T12:10:08;0.40;;;0.30;;
16737;SDS011;17906;47.684;10.806;2022-11-20T12:12:42;1.17;;;0.30;;
16737;SDS011;17906;47.684;10.806;2022-11-20T12:15:15;0.70;;;0.40;;
16737;SDS011;17906;47.684;10.806;2022-11-20T12:17:51;1.30;;;0.30;;
16737;SDS011;17906;47.684;10.806;2022-11-20T12:20:18;0.47;;;0.40;;
16737;SDS011;17906;47.684;10.806;2022-11-20T12:22:49;0.30;;;0.23;;
16737;SDS011;17906;47.684;10.806;2022-11-20T12:25:26;1.20;;;0.40;;
16737;SDS011;17906;47.684;10.806;2022-11-20T12:28:02;0.80;;;0.30;;
16737;SDS011;17906;47.684;10.806;2022-11-20T12:30:47;0.53;;;0.30;;
16737;SDS011;17906;47.684;10.806;2022-11-20T12:33:22;0.47;;;0.37;;
16737;SDS011;17906;47.684;10.806;2022-11-20T12:36:06;0.63;;;0.40;;
16737;SDS011;17906;47.684;10.806;2022-11-20T12:41:43;0.63;;;0.40;;
16737;SDS011;17906;47.684;10.806;2022-11-20T12:44:42;0.57;;;0.30;;
16737;SDS011;17906;47.684;10.806;2022-11-20T12:47:40;0.70;;;0.43;;
16737;SDS011;17906;47.684;10.806;2022-11-20T12:50:17;0.50;;;0.40;;
16737;SDS011;17906;47.684;10.806;2022-11-20T12:52:50;1.23;;;0.40;;
16737;SDS011;17906;47.684;10.806;2022-11-20T12:55:24;0.63;;;0.40;;
16737;SDS011;17906;47.684;10.806;2022-11-20T12:58:00;1.67;;;0.40;;
16737;SDS011;17906;47.684;10.806;2022-11-20T13:00:35;0.30;;;0.27;;
16737;SDS011;17906;47.684;10.806;2022-11-20T13:06:10;1.20;;;0.50;;
16737;SDS011;17906;47.684;10.806;2022-11-20T13:08:41;2.70;;;0.40;;
16737;SDS011;17906;47.684;10.806;2022-11-20T13:11:13;0.87;;;0.60;;
16737;SDS011;17906;47.684;10.806;2022-11-20T13:13:59;0.60;;;0.40;;
16737;SDS011;17906;47.684;10.806;2022-11-20T13:16:36;0.50;;;0.30;;
16737;SDS011;17906;47.684;10.806;2022-11-20T13:19:08;1.27;;;0.50;;
16737;SDS011;17906;47.684;10.806;2022-11-20T13:21:38;1.00;;;0.40;;
16737;SDS011;17906;47.684;10.806;2022-11-20T13:24:06;1.37;;;0.50;;
16737;SDS011;17906;47.684;10.806;2022-11-20T13:26:33;0.60;;;0.30;;
16737;SDS011;17906;47.684;10.806;2022-11-20T13:29:03;1.17;;;0.40;;
16737;SDS011;17906;47.684;10.806;2022-11-20T13:31:36;9.93;;;3.80;;
16737;SDS011;17906;47.684;10.806;2022-11-20T13:34:11;8.07;;;2.83;;
16737;SDS011;17906;47.684;10.806;2022-11-20T13:36:48;3.67;;;1.93;;
16737;SDS011;17906;47.684;10.806;2022-11-20T13:39:23;5.67;;;2.97;;
16737;SDS011;17906;47.684;10.806;2022-11-20T13:41:53;2.03;;;0.90;;
16737;SDS011;17906;47.684;10.806;2022-11-20T13:44:25;0.90;;;0.70;;
16737;SDS011;17906;47.684;10.806;2022-11-20T13:46:55;1.97;;;0.90;;
16737;SDS011;17906;47.684;10.806;2022-11-20T13:49:23;1.20;;;0.80;;
16737;SDS011;17906;47.684;10.806;2022-11-20T13:51:55;1.97;;;0.70;;
16737;SDS011;17906;47.684;10.806;2022-11-20T13:57:40;1.43;;;0.80;;
16737;SDS011;17906;47.684;10.806;2022-11-20T14:00:24;1.80;;;0.93;;
16737;SDS011;17906;47.684;10.806;2022-11-20T14:02:58;1.30;;;1.00;;
16737;SDS011;17906;47.684;10.806;2022-11-20T14:05:34;1.67;;;0.80;;
16737;SDS011;17906;47.684;10.806;2022-11-20T14:08:03;1.40;;;0.73;;
16737;SDS011;17906;47.684;10.806;2022-11-20T14:10:32;1.10;;;0.60;;
16737;SDS011;17906;47.684;10.806;2022-11-20T14:13:09;1.93;;;1.17;;
16737;SDS011;17906;47.684;10.806;2022-11-20T14:15:38;2.90;;;0.80;;
16737;SDS011;17906;47.684;10.806;2022-11-20T14:18:11;1.83;;;1.00;;
16737;SDS011;17906;47.684;10.806;2022-11-20T14:20:38;1.17;;;0.67;;
16737;SDS011;17906;47.684;10.806;2022-11-20T14:23:07;4.10;;;1.40;;
16737;SDS011;17906;47.684;10.806;2022-11-20T14:25:36;1.30;;;0.87;;
16737;SDS011;17906;47.684;10.806;2022-11-20T14:28:03;1.20;;;0.80;;
16737;SDS011;17906;47.684;10.806;2022-11-20T14:30:36;2.10;;;1.10;;
16737;SDS011;17906;47.684;10.806;2022-11-20T14:33:09;3.30;;;1.03;;
16737;SDS011;17906;47.684;10.806;2022-11-20T14:35:40;3.63;;;1.73;;
16737;SDS011;17906;47.684;10.806;2022-11-20T14:38:11;4.33;;;2.30;;
16737;SDS011;17906;47.684;10.806;2022-11-20T14:40:41;8.77;;;2.87;;
16737;SDS011;17906;47.684;10.806;2022-11-20T14:43:21;5.50;;;2.47;;
16737;SDS011;17906;47.684;10.806;2022-11-20T14:45:54;2.27;;;1.37;;
16737;SDS011;17906;47.684;10.806;2022-11-20T14:48:24;4.80;;;1.67;;
16737;SDS011;17906;47.684;10.806;2022-11-20T14:50:56;3.00;;;1.80;;
16737;SDS011;17906;47.684;10.806;2022-11-20T14:53:23;3.17;;;1.30;;
16737;SDS011;17906;47.684;10.806;2022-11-20T14:55:56;2.43;;;1.30;;
16737;SDS011;17906;47.684;10.806;2022-11-20T14:58:26;1.60;;;0.80;;
16737;SDS011;17906;47.684;10.806;2022-11-20T15:00:55;1.83;;;1.10;;
16737;SDS011;17906;47.684;10.806;2022-11-20T15:03:30;2.73;;;1.50;;